createdAt,value
2023-05-25T00:01:54.787Z,100.00
2023-05-25T00:04:27.344Z,100.00
2023-05-25T00:06:56.876Z,100.00
2023-05-25T00:09:26.104Z,100.00
2023-05-25T00:11:54.411Z,100.00
2023-05-25T00:14:22.634Z,100.00
2023-05-25T00:16:51.671Z,100.00
2023-05-25T00:19:19.785Z,100.00
2023-05-25T00:21:48.861Z,100.00
2023-05-25T00:24:18.338Z,100.00
2023-05-25T00:26:47.530Z,100.00
2023-05-25T00:29:17.185Z,100.00
2023-05-25T00:31:45.291Z,100.00
2023-05-25T00:34:13.267Z,100.00
2023-05-25T00:36:43.344Z,100.00
2023-05-25T00:39:11.492Z,100.00
2023-05-25T00:41:41.859Z,100.00
2023-05-25T00:44:09.944Z,100.00
2023-05-25T00:46:39.376Z,100.00
2023-05-25T00:49:07.506Z,100.00
2023-05-25T00:51:36.625Z,100.00
2023-05-25T00:54:04.799Z,100.00
2023-05-25T00:56:36.181Z,100.00
2023-05-25T00:59:09.298Z,100.00
2023-05-25T01:01:40.485Z,100.00
2023-05-25T01:04:13.493Z,100.00
2023-05-25T01:06:45.875Z,100.00
2023-05-25T01:09:17.517Z,100.00
2023-05-25T01:11:49.944Z,100.00
2023-05-25T01:14:22.392Z,100.00
2023-05-25T01:16:51.912Z,100.00
2023-05-25T01:19:20.198Z,100.00
2023-05-25T01:21:57.880Z,100.00
2023-05-25T01:24:34.573Z,100.00
2023-05-25T01:27:08.916Z,100.00
2023-05-25T01:29:41.331Z,100.00
2023-05-25T01:32:10.120Z,100.00
2023-05-25T01:34:39.979Z,100.00
2023-05-25T01:37:09.363Z,100.00
2023-05-25T01:39:37.431Z,100.00
2023-05-25T01:42:05.816Z,100.00
2023-05-25T01:44:34.114Z,100.00
2023-05-25T01:47:06.956Z,100.00
2023-05-25T01:49:44.370Z,100.00
2023-05-25T01:52:20.681Z,100.00
2023-05-25T01:54:54.121Z,100.00
2023-05-25T01:57:23.437Z,100.00
2023-05-25T01:59:54.888Z,100.00
2023-05-25T02:02:23.658Z,100.00
2023-05-25T02:04:51.804Z,100.00
2023-05-25T02:07:21.214Z,100.00
2023-05-25T02:09:49.132Z,100.00
2023-05-25T02:12:17.157Z,100.00
2023-05-25T02:14:46.117Z,100.00
2023-05-25T02:17:14.190Z,100.00
2023-05-25T02:19:42.287Z,100.00
2023-05-25T02:22:10.263Z,100.00
2023-05-25T02:24:39.655Z,100.00
2023-05-25T02:27:08.005Z,100.00
2023-05-25T02:29:36.126Z,100.00
2023-05-25T02:32:04.155Z,100.00
2023-05-25T02:34:32.200Z,100.00
2023-05-25T02:37:00.930Z,100.00
2023-05-25T02:39:28.965Z,100.00
2023-05-25T02:41:58.356Z,100.00
2023-05-25T02:44:26.354Z,100.00
2023-05-25T02:46:54.481Z,100.00
2023-05-25T02:49:22.611Z,100.00
2023-05-25T02:51:50.616Z,100.00
2023-05-25T02:54:18.628Z,100.00
2023-05-25T02:56:46.689Z,100.00
2023-05-25T02:59:16.522Z,100.00
2023-05-25T03:01:44.935Z,100.00
2023-05-25T03:04:12.961Z,100.00
2023-05-25T03:06:40.938Z,100.00
2023-05-25T03:09:09.837Z,100.00
2023-05-25T03:11:37.821Z,100.00
2023-05-25T03:14:06.021Z,100.00
2023-05-25T03:16:36.596Z,100.00
2023-05-25T03:19:05.664Z,100.00
2023-05-25T03:21:33.655Z,100.00
2023-05-25T03:24:01.670Z,100.00
2023-05-25T03:26:30.676Z,100.00
2023-05-25T03:28:58.696Z,100.00
2023-05-25T03:31:26.881Z,100.00
2023-05-25T03:33:56.248Z,100.00
2023-05-25T03:36:27.475Z,100.00
2023-05-25T03:41:40.990Z,100.00
2023-05-25T03:44:10.775Z,100.00
2023-05-25T03:46:39.521Z,100.00
2023-05-25T03:49:13.633Z,100.00
2023-05-25T03:51:41.999Z,100.00
2023-05-25T03:54:10.082Z,100.00
2023-05-25T03:56:38.044Z,100.00
2023-05-25T03:59:06.005Z,100.00
2023-05-25T04:01:38.163Z,100.00
2023-05-25T04:04:06.614Z,100.00
2023-05-25T04:06:37.286Z,100.00
2023-05-25T04:09:05.731Z,100.00
2023-05-25T04:11:33.650Z,100.00
2023-05-25T04:14:01.556Z,100.00
2023-05-25T04:16:29.817Z,100.00
2023-05-25T04:18:58.163Z,100.00
2023-05-25T04:21:26.769Z,100.00
2023-05-25T04:23:56.556Z,100.00
2023-05-25T04:26:26.400Z,100.00
2023-05-25T04:28:55.895Z,100.00
2023-05-25T04:31:25.017Z,100.00
2023-05-25T04:33:53.044Z,100.00
2023-05-25T04:36:21.172Z,100.00
2023-05-25T04:38:52.292Z,100.00
2023-05-25T04:41:21.857Z,100.00
2023-05-25T04:44:05.890Z,100.00
2023-05-25T04:46:37.686Z,100.00
2023-05-25T04:49:06.413Z,100.00
2023-05-25T04:51:34.374Z,100.00
2023-05-25T04:54:02.419Z,100.00
2023-05-25T04:56:31.761Z,100.00
2023-05-25T04:58:59.943Z,100.00
2023-05-25T05:01:31.613Z,100.00
2023-05-25T05:03:59.837Z,100.00
2023-05-25T05:06:29.204Z,100.00
2023-05-25T05:08:57.142Z,100.00
2023-05-25T05:11:25.241Z,100.00
2023-05-25T05:13:54.706Z,100.00
2023-05-25T05:16:23.085Z,95.92
2023-05-25T05:18:51.445Z,92.38
2023-05-25T05:21:21.336Z,91.38
2023-05-25T05:23:50.291Z,91.06
2023-05-25T05:26:18.326Z,91.00
2023-05-25T05:28:46.355Z,90.40
2023-05-25T05:31:19.879Z,89.50
2023-05-25T05:33:50.474Z,90.49
2023-05-25T05:36:18.494Z,89.04
2023-05-25T05:38:47.118Z,84.72
2023-05-25T05:41:15.432Z,81.43
2023-05-25T05:43:45.730Z,78.51
2023-05-25T05:46:14.080Z,76.04
2023-05-25T05:48:43.819Z,74.21
2023-05-25T05:51:11.966Z,74.25
2023-05-25T05:53:40.419Z,72.30
2023-05-25T05:56:18.458Z,71.99
2023-05-25T05:58:49.688Z,71.12
2023-05-25T06:01:18.256Z,69.13
2023-05-25T06:03:47.930Z,68.69
2023-05-25T06:06:16.426Z,67.60
2023-05-25T06:08:44.831Z,69.50
2023-05-25T06:11:12.992Z,69.42
2023-05-25T06:13:40.984Z,67.99
2023-05-25T06:16:09.199Z,67.07
2023-05-25T06:18:37.381Z,66.44
2023-05-25T06:21:07.652Z,65.82
2023-05-25T06:23:35.745Z,67.12
2023-05-25T06:26:07.339Z,65.60
2023-05-25T06:28:35.640Z,64.05
2023-05-25T06:31:04.000Z,63.74
2023-05-25T06:33:32.924Z,62.13
2023-05-25T06:36:01.721Z,61.63
2023-05-25T06:38:31.470Z,60.86
2023-05-25T06:41:05.027Z,60.39
2023-05-25T06:43:33.324Z,60.81
2023-05-25T06:46:01.346Z,61.88
2023-05-25T06:48:29.480Z,59.99
2023-05-25T06:50:57.674Z,59.05
2023-05-25T06:53:25.711Z,58.32
2023-05-25T06:55:55.176Z,56.99
2023-05-25T06:58:23.140Z,57.76
2023-05-25T07:00:51.690Z,56.98
2023-05-25T07:03:21.062Z,57.00
2023-05-25T07:08:37.012Z,57.82
2023-05-25T07:11:09.122Z,59.16
2023-05-25T07:13:37.161Z,58.52
2023-05-25T07:16:05.302Z,56.89
2023-05-25T07:18:33.557Z,56.72
2023-05-25T07:21:01.625Z,57.98
2023-05-25T07:23:29.917Z,58.75
2023-05-25T07:25:58.146Z,58.53
2023-05-25T07:28:27.514Z,57.83
2023-05-25T07:30:55.901Z,59.88
2023-05-25T07:33:24.005Z,62.36
2023-05-25T07:35:52.631Z,64.53
2023-05-25T07:38:20.956Z,65.41
2023-05-25T07:40:49.417Z,66.10
2023-05-25T07:43:17.516Z,67.29
2023-05-25T07:45:46.992Z,68.77
2023-05-25T07:48:15.261Z,69.90
2023-05-25T07:50:45.482Z,71.55
2023-05-25T07:53:14.027Z,72.87
2023-05-25T07:55:42.199Z,73.88
2023-05-25T07:58:10.454Z,74.41
2023-05-25T08:00:38.865Z,76.95
2023-05-25T08:03:08.485Z,78.64
2023-05-25T08:05:36.513Z,80.07
2023-05-25T08:08:04.832Z,80.94
2023-05-25T08:10:32.868Z,82.46
2023-05-25T08:13:01.020Z,82.43
2023-05-25T08:15:29.738Z,82.88
2023-05-25T08:17:58.025Z,84.38
2023-05-25T08:20:28.136Z,85.02
2023-05-25T08:22:56.266Z,85.60
2023-05-25T08:25:24.429Z,86.28
2023-05-25T08:27:52.562Z,87.40
2023-05-25T08:30:20.789Z,88.80
2023-05-25T08:32:48.978Z,91.35
2023-05-25T08:35:17.613Z,94.39
2023-05-25T08:37:46.993Z,98.24
2023-05-25T08:40:16.511Z,100.00
2023-05-25T08:42:45.532Z,100.00
2023-05-25T08:45:26.478Z,100.00
2023-05-25T08:48:07.463Z,100.00
2023-05-25T08:50:37.146Z,100.00
2023-05-25T08:53:15.723Z,100.00
2023-05-25T08:55:47.804Z,100.00
2023-05-25T08:58:19.701Z,100.00
2023-05-25T09:00:56.723Z,100.00
2023-05-25T09:03:26.582Z,100.00
2023-05-25T09:05:57.485Z,100.00
2023-05-25T09:08:27.377Z,100.00
2023-05-25T09:10:57.780Z,100.00
2023-05-25T09:13:25.939Z,100.00
2023-05-25T09:15:54.563Z,100.00
2023-05-25T09:18:22.777Z,100.00
2023-05-25T09:20:51.247Z,100.00
2023-05-25T09:23:20.340Z,100.00
2023-05-25T09:25:52.135Z,100.00
2023-05-25T09:30:52.621Z,100.00
2023-05-25T09:33:21.123Z,100.00
2023-05-25T09:35:50.201Z,100.00
2023-05-25T09:38:18.559Z,100.00
2023-05-25T09:40:47.413Z,100.00
2023-05-25T09:43:32.272Z,100.00
2023-05-25T09:46:06.465Z,100.00
2023-05-25T09:48:34.892Z,100.00
2023-05-25T09:51:02.952Z,100.00
2023-05-25T09:53:32.790Z,100.00
2023-05-25T09:56:03.184Z,100.00
2023-05-25T09:58:33.881Z,100.00
2023-05-25T10:01:02.850Z,100.00
2023-05-25T10:03:31.073Z,100.00
2023-05-25T10:05:59.155Z,100.00
2023-05-25T10:08:29.210Z,100.00
2023-05-25T10:10:57.324Z,100.00
2023-05-25T10:13:28.405Z,100.00
2023-05-25T10:15:59.560Z,100.00
2023-05-25T10:18:30.290Z,100.00
2023-05-25T10:21:03.792Z,100.00
2023-05-25T10:23:40.296Z,100.00
2023-05-25T10:26:10.092Z,100.00
2023-05-25T10:28:40.722Z,100.00
2023-05-25T10:31:10.896Z,100.00
2023-05-25T10:33:39.032Z,100.00
2023-05-25T10:36:11.252Z,100.00
2023-05-25T10:38:42.054Z,100.00
2023-05-25T10:41:11.655Z,100.00
2023-05-25T10:43:40.802Z,100.00
2023-05-25T10:46:11.039Z,100.00
2023-05-25T10:48:39.748Z,100.00
2023-05-25T10:51:10.061Z,100.00
2023-05-25T10:53:39.915Z,100.00
2023-05-25T10:56:10.791Z,100.00
2023-05-25T10:58:43.585Z,100.00
2023-05-25T11:01:15.153Z,100.00
2023-05-25T11:03:51.783Z,100.00
2023-05-25T11:06:21.724Z,100.00
2023-05-25T11:08:52.781Z,100.00
2023-05-25T11:11:21.047Z,100.00
2023-05-25T11:13:50.610Z,100.00
2023-05-25T11:16:22.390Z,100.00
2023-05-25T11:18:54.996Z,100.00
2023-05-25T11:21:42.501Z,100.00
2023-05-25T11:24:15.706Z,100.00
2023-05-25T11:26:58.518Z,100.00
2023-05-25T11:29:27.438Z,100.00
2023-05-25T11:31:59.519Z,100.00
2023-05-25T11:34:28.135Z,100.00
2023-05-25T11:36:57.851Z,100.00
2023-05-25T11:39:26.048Z,100.00
2023-05-25T11:41:57.050Z,100.00
2023-05-25T11:44:29.926Z,100.00
2023-05-25T11:47:03.013Z,100.00
2023-05-25T11:49:31.134Z,100.00
2023-05-25T11:51:59.447Z,100.00
2023-05-25T11:54:29.126Z,100.00
2023-05-25T11:57:02.650Z,100.00
2023-05-25T11:59:32.346Z,100.00
2023-05-25T12:02:04.365Z,100.00
2023-05-25T12:04:35.108Z,100.00
2023-05-25T12:07:05.588Z,100.00
2023-05-25T12:09:33.892Z,100.00
2023-05-25T12:12:04.437Z,100.00
2023-05-25T12:14:35.024Z,100.00
2023-05-25T12:17:07.578Z,100.00
2023-05-25T12:19:36.507Z,100.00
2023-05-25T12:22:04.774Z,100.00
2023-05-25T12:24:32.871Z,100.00
2023-05-25T12:27:02.484Z,100.00
2023-05-25T12:29:30.825Z,100.00
2023-05-25T12:32:05.665Z,100.00
2023-05-25T12:34:33.657Z,100.00
2023-05-25T12:37:01.854Z,100.00
2023-05-25T12:39:38.889Z,100.00
2023-05-25T12:42:13.518Z,100.00
2023-05-25T12:44:41.740Z,100.00
2023-05-25T12:47:16.389Z,100.00
2023-05-25T12:49:45.989Z,100.00
2023-05-25T12:52:33.862Z,100.00
2023-05-25T12:55:21.029Z,100.00
2023-05-25T12:57:52.516Z,100.00
2023-05-25T13:00:22.283Z,100.00
2023-05-25T13:02:52.183Z,100.00
2023-05-25T13:05:21.706Z,100.00
2023-05-25T13:07:49.880Z,100.00
2023-05-25T13:10:18.769Z,100.00
2023-05-25T13:12:47.552Z,100.00
2023-05-25T13:15:17.376Z,100.00
2023-05-25T13:17:46.220Z,100.00
2023-05-25T13:20:16.446Z,100.00
2023-05-25T13:22:46.247Z,95.02
2023-05-25T13:25:15.687Z,71.77
2023-05-25T13:27:46.060Z,68.65
2023-05-25T13:30:15.371Z,64.78
2023-05-25T13:32:44.538Z,58.80
2023-05-25T13:35:19.330Z,58.45
2023-05-25T13:37:48.856Z,56.16
2023-05-25T13:40:17.062Z,56.58
2023-05-25T13:42:45.074Z,60.16
2023-05-25T13:45:13.888Z,60.46
2023-05-25T13:47:43.716Z,59.76
2023-05-25T13:50:12.846Z,59.89
2023-05-25T13:52:40.976Z,60.05
2023-05-25T13:55:10.663Z,57.30
2023-05-25T13:57:38.876Z,58.16
2023-05-25T14:00:09.662Z,59.27
2023-05-25T14:02:38.361Z,56.57
2023-05-25T14:05:07.200Z,58.71
2023-05-25T14:07:35.906Z,59.79
2023-05-25T14:10:04.490Z,59.80
2023-05-25T14:12:34.446Z,59.14
2023-05-25T14:15:02.939Z,58.46
2023-05-25T14:17:31.123Z,57.70
2023-05-25T14:19:59.889Z,58.32
2023-05-25T14:22:28.024Z,57.62
2023-05-25T14:24:56.108Z,56.89
2023-05-25T14:27:24.482Z,56.83
2023-05-25T14:29:53.848Z,56.79
2023-05-25T14:32:21.853Z,56.37
2023-05-25T14:34:51.177Z,55.97
2023-05-25T14:37:19.366Z,56.56
2023-05-25T14:39:47.371Z,56.20
2023-05-25T14:42:16.073Z,56.51
2023-05-25T14:44:44.076Z,55.18
2023-05-25T14:47:14.014Z,55.96
2023-05-25T14:49:42.164Z,54.65
2023-05-25T14:52:10.278Z,54.00
2023-05-25T14:54:44.018Z,54.84
2023-05-25T14:57:12.510Z,54.34
2023-05-25T14:59:40.945Z,54.82
2023-05-25T15:02:09.265Z,54.09
2023-05-25T15:04:38.961Z,54.50
2023-05-25T15:07:06.886Z,53.84
2023-05-25T15:09:36.726Z,53.71
2023-05-25T15:12:05.146Z,54.26
2023-05-25T15:14:33.056Z,53.73
2023-05-25T15:17:01.773Z,52.80
2023-05-25T15:19:31.452Z,52.89
2023-05-25T15:22:01.069Z,61.00
2023-05-25T15:24:29.067Z,67.81
2023-05-25T15:26:57.031Z,75.13
2023-05-25T15:29:25.240Z,78.44
2023-05-25T15:31:54.068Z,84.01
2023-05-25T15:34:22.514Z,93.38
2023-05-25T15:36:51.729Z,100.00
2023-05-25T15:39:22.223Z,100.00
2023-05-25T15:41:52.380Z,100.00
2023-05-25T15:44:21.342Z,100.00
2023-05-25T15:46:50.185Z,100.00
2023-05-25T15:49:19.008Z,100.00
2023-05-25T15:51:47.194Z,100.00
2023-05-25T15:54:15.402Z,100.00
2023-05-25T15:56:44.851Z,100.00
2023-05-25T15:59:13.392Z,100.00
2023-05-25T16:01:42.062Z,100.00
2023-05-25T16:04:10.377Z,100.00
2023-05-25T16:06:38.544Z,100.00
2023-05-25T16:09:06.808Z,100.00
2023-05-25T16:11:34.892Z,100.00
2023-05-25T16:14:06.358Z,100.00
2023-05-25T16:16:34.497Z,100.00
2023-05-25T16:19:03.020Z,100.00
2023-05-25T16:21:31.078Z,100.00
2023-05-25T16:23:59.118Z,100.00
2023-05-25T16:26:27.274Z,100.00
2023-05-25T16:28:55.376Z,100.00
2023-05-25T16:31:24.792Z,100.00
2023-05-25T16:33:53.030Z,100.00
2023-05-25T16:36:21.203Z,100.00
2023-05-25T16:38:49.637Z,100.00
2023-05-25T16:41:17.668Z,100.00
2023-05-25T16:43:45.886Z,100.00
2023-05-25T16:46:14.217Z,100.00
2023-05-25T16:48:43.767Z,100.00
2023-05-25T16:51:15.226Z,100.00
2023-05-25T16:53:43.978Z,100.00
2023-05-25T16:56:12.444Z,100.00
2023-05-25T16:58:40.385Z,100.00
2023-05-25T17:01:08.525Z,100.00
2023-05-25T17:03:36.766Z,100.00
2023-05-25T17:06:06.829Z,100.00
2023-05-25T17:08:36.863Z,100.00
2023-05-25T17:11:04.964Z,100.00
2023-05-25T17:13:33.362Z,100.00
2023-05-25T17:16:01.540Z,100.00
2023-05-25T17:18:29.640Z,100.00
2023-05-25T17:20:59.882Z,100.00
2023-05-25T17:23:29.334Z,100.00
2023-05-25T17:25:57.288Z,100.00
2023-05-25T17:28:26.349Z,100.00
2023-05-25T17:30:54.570Z,100.00
2023-05-25T17:33:22.682Z,100.00
2023-05-25T17:35:50.789Z,100.00
2023-05-25T17:38:19.012Z,100.00
2023-05-25T17:40:50.157Z,100.00
2023-05-25T17:43:18.425Z,100.00
2023-05-25T17:45:47.278Z,100.00
2023-05-25T17:48:16.067Z,100.00
2023-05-25T17:50:44.591Z,100.00
2023-05-25T17:53:12.950Z,100.00
2023-05-25T17:55:41.134Z,100.00
2023-05-25T17:58:10.644Z,100.00
2023-05-25T18:00:38.797Z,100.00
2023-05-25T18:03:07.473Z,100.00
2023-05-25T18:05:35.552Z,100.00
2023-05-25T18:08:05.078Z,100.00
2023-05-25T18:10:33.129Z,100.00
2023-05-25T18:13:01.266Z,100.00
2023-05-25T18:15:30.923Z,100.00
2023-05-25T18:18:02.542Z,100.00
2023-05-25T18:20:30.591Z,100.00
2023-05-25T18:22:59.915Z,100.00
2023-05-25T18:25:27.999Z,100.00
2023-05-25T18:27:56.037Z,100.00
2023-05-25T18:30:24.869Z,100.00
2023-05-25T18:32:56.762Z,100.00
2023-05-25T18:35:25.367Z,100.00
2023-05-25T18:37:53.444Z,100.00
2023-05-25T18:40:21.663Z,100.00
2023-05-25T18:42:50.960Z,100.00
2023-05-25T18:45:18.990Z,100.00
2023-05-25T18:47:47.232Z,100.00
2023-05-25T18:50:17.145Z,100.00
2023-05-25T18:52:46.989Z,100.00
2023-05-25T18:55:14.985Z,100.00
2023-05-25T18:57:43.229Z,100.00
2023-05-25T19:00:12.466Z,100.00
2023-05-25T19:02:40.969Z,100.00
2023-05-25T19:05:11.804Z,100.00
2023-05-25T19:07:51.094Z,100.00
2023-05-25T19:10:23.330Z,100.00
2023-05-25T19:12:51.449Z,100.00
2023-05-25T19:15:19.506Z,100.00
2023-05-25T19:17:48.060Z,100.00
2023-05-25T19:20:17.516Z,100.00
2023-05-25T19:22:47.840Z,100.00
2023-05-25T19:25:15.999Z,100.00
2023-05-25T19:27:45.223Z,100.00
2023-05-25T19:30:16.249Z,100.00
2023-05-25T19:32:44.438Z,100.00
2023-05-25T19:35:12.820Z,100.00
2023-05-25T19:37:41.893Z,100.00
2023-05-25T19:40:13.427Z,100.00
2023-05-25T19:42:41.758Z,100.00
2023-05-25T19:45:11.023Z,100.00
2023-05-25T19:47:39.102Z,100.00
2023-05-25T19:50:09.907Z,100.00
2023-05-25T19:52:37.896Z,100.00
2023-05-25T19:55:06.938Z,100.00
2023-05-25T19:57:36.620Z,100.00
2023-05-25T20:00:09.185Z,100.00
2023-05-25T20:02:43.258Z,100.00
2023-05-25T20:05:11.723Z,100.00
2023-05-25T20:07:40.704Z,100.00
2023-05-25T20:10:09.490Z,100.00
2023-05-25T20:12:38.975Z,100.00
2023-05-25T20:15:07.890Z,100.00
2023-05-25T20:17:36.080Z,100.00
2023-05-25T20:20:05.552Z,100.00
2023-05-25T20:22:33.907Z,100.00
2023-05-25T20:25:04.136Z,100.00
2023-05-25T20:27:32.146Z,100.00
2023-05-25T20:30:01.526Z,100.00
2023-05-25T20:32:30.073Z,100.00
2023-05-25T20:34:58.158Z,100.00
2023-05-25T20:37:26.168Z,100.00
2023-05-25T20:39:56.616Z,100.00
2023-05-25T20:42:27.372Z,100.00
2023-05-25T20:44:55.485Z,100.00
2023-05-25T20:47:25.187Z,100.00
2023-05-25T20:49:55.353Z,100.00
2023-05-25T20:52:25.801Z,100.00
2023-05-25T20:54:54.320Z,100.00
2023-05-25T20:57:22.384Z,100.00
2023-05-25T20:59:51.681Z,100.00
2023-05-25T21:02:19.680Z,100.00
2023-05-25T21:04:49.038Z,100.00
2023-05-25T21:07:18.872Z,100.00
2023-05-25T21:09:47.933Z,100.00
2023-05-25T21:12:16.148Z,100.00
2023-05-25T21:14:44.153Z,100.00
2023-05-25T21:17:12.225Z,100.00
2023-05-25T21:19:40.273Z,100.00
2023-05-25T21:22:11.400Z,100.00
2023-05-25T21:24:39.418Z,100.00
2023-05-25T21:27:09.733Z,100.00
2023-05-25T21:29:37.977Z,100.00
2023-05-25T21:32:06.464Z,100.00
2023-05-25T21:34:34.625Z,100.00
2023-05-25T21:37:03.379Z,100.00
2023-05-25T21:39:32.844Z,100.00
2023-05-25T21:42:02.923Z,100.00
2023-05-25T21:44:31.331Z,100.00
2023-05-25T21:46:59.446Z,100.00
2023-05-25T21:49:27.664Z,100.00
2023-05-25T21:51:55.788Z,100.00
2023-05-25T21:54:24.110Z,100.00
2023-05-25T21:56:55.808Z,100.00
2023-05-25T21:59:24.311Z,100.00
2023-05-25T22:01:52.761Z,100.00
2023-05-25T22:04:21.135Z,100.00
2023-05-25T22:06:49.129Z,100.00
2023-05-25T22:09:17.280Z,100.00
2023-05-25T22:11:45.296Z,100.00
2023-05-25T22:14:14.903Z,100.00
2023-05-25T22:16:43.198Z,100.00
2023-05-25T22:19:11.383Z,100.00
2023-05-25T22:21:39.394Z,100.00
2023-05-25T22:24:07.596Z,100.00
2023-05-25T22:26:35.572Z,100.00
2023-05-25T22:29:03.579Z,100.00
2023-05-25T22:31:33.217Z,100.00
2023-05-25T22:34:01.374Z,100.00
2023-05-25T22:36:29.389Z,100.00
2023-05-25T22:38:57.571Z,100.00
2023-05-25T22:41:26.554Z,100.00
2023-05-25T22:43:54.552Z,100.00
2023-05-25T22:46:23.377Z,100.00
2023-05-25T22:48:52.907Z,100.00
2023-05-25T22:51:20.980Z,100.00
2023-05-25T22:53:49.049Z,100.00
2023-05-25T22:56:17.243Z,100.00
2023-05-25T22:58:45.290Z,100.00
2023-05-25T23:01:13.734Z,100.00
2023-05-25T23:03:41.896Z,100.00
2023-05-25T23:06:11.482Z,100.00
2023-05-25T23:08:39.509Z,100.00
2023-05-25T23:11:07.517Z,100.00
2023-05-25T23:13:35.861Z,100.00
2023-05-25T23:16:04.017Z,100.00
2023-05-25T23:18:32.019Z,100.00
2023-05-25T23:21:00.028Z,100.00
2023-05-25T23:23:29.446Z,100.00
2023-05-25T23:25:58.001Z,100.00
2023-05-25T23:28:26.160Z,100.00
2023-05-25T23:30:54.222Z,100.00
2023-05-25T23:33:23.657Z,100.00
2023-05-25T23:35:51.716Z,100.00
2023-05-25T23:38:19.673Z,100.00
2023-05-25T23:40:49.019Z,100.00
2023-05-25T23:43:17.128Z,100.00
2023-05-25T23:45:45.456Z,100.00
2023-05-25T23:48:13.651Z,100.00
2023-05-25T23:50:42.445Z,100.00
2023-05-25T23:53:10.610Z,100.00
2023-05-25T23:55:38.616Z,100.00
2023-05-25T23:58:08.208Z,100.00
